createdAt,value
2018-04-26T00:00:44.688Z,5.95
2018-04-26T00:04:38.685Z,6.35
2018-04-26T00:08:31.823Z,5.15
2018-04-26T00:12:26.155Z,5.82
2018-04-26T00:16:19.366Z,7.17
2018-04-26T00:20:13.260Z,8.63
2018-04-26T00:24:06.402Z,8.82
2018-04-26T00:27:59.531Z,5.53
2018-04-26T00:31:52.770Z,6.90
2018-04-26T00:35:46.631Z,6.87
2018-04-26T00:39:39.914Z,10.07
2018-04-26T00:43:33.904Z,7.68
2018-04-26T00:47:27.189Z,7.47
2018-04-26T00:51:32.519Z,10.20
2018-04-26T00:55:25.758Z,14.87
2018-04-26T00:59:18.931Z,6.35
2018-04-26T01:03:12.760Z,9.30
2018-04-26T01:07:05.970Z,6.93
2018-04-26T01:10:59.371Z,8.43
2018-04-26T01:14:52.523Z,7.57
2018-04-26T01:18:59.775Z,4.78
2018-04-26T01:22:52.928Z,8.23
2018-04-26T01:26:46.121Z,7.30
2018-04-26T01:30:39.247Z,6.00
2018-04-26T01:34:32.652Z,5.60
2018-04-26T01:38:25.856Z,8.87
2018-04-26T01:42:19.512Z,7.22
2018-04-26T01:46:13.782Z,6.67
2018-04-26T01:50:07.003Z,8.30
2018-04-26T01:54:01.561Z,5.53
2018-04-26T01:57:54.812Z,6.53
2018-04-26T02:01:47.979Z,7.57
2018-04-26T02:05:41.169Z,7.70
2018-04-26T02:09:34.598Z,8.80
2018-04-26T02:13:27.877Z,8.70
2018-04-26T02:17:21.434Z,9.87
2018-04-26T02:21:14.680Z,7.67
2018-04-26T02:25:07.990Z,8.75
2018-04-26T02:29:01.460Z,6.40
2018-04-26T03:08:27.744Z,11.13
2018-04-26T03:12:21.031Z,9.53
2018-04-26T03:16:14.977Z,10.50
2018-04-26T03:20:08.155Z,11.47
2018-04-26T03:24:02.660Z,8.07
2018-04-26T03:27:55.864Z,10.98
2018-04-26T03:31:49.139Z,11.13
2018-04-26T03:35:42.318Z,14.10
2018-04-26T03:39:36.527Z,9.20
2018-04-26T03:43:29.845Z,11.47
2018-04-26T03:47:23.320Z,11.67
2018-04-26T03:51:16.519Z,11.80
2018-04-26T03:59:30.282Z,11.75
2018-04-26T04:03:36.003Z,13.05
2018-04-26T04:07:29.624Z,11.97
2018-04-26T04:11:22.801Z,13.05
2018-04-26T04:15:15.958Z,15.57
2018-04-26T04:19:09.137Z,13.25
2018-04-26T04:23:02.799Z,13.32
2018-04-26T04:26:56.461Z,12.23
2018-04-26T04:30:49.599Z,14.37
2018-04-26T04:34:43.038Z,11.70
2018-04-26T04:38:37.344Z,10.65
2018-04-26T04:42:30.544Z,13.17
2018-04-26T04:46:24.150Z,14.70
2018-04-26T04:50:18.681Z,13.82
2018-04-26T04:54:13.161Z,11.83
2018-04-26T04:58:07.128Z,10.20
2018-04-26T05:02:00.902Z,10.80
2018-04-26T05:05:55.096Z,11.73
2018-04-26T05:09:48.268Z,13.73
2018-04-26T05:13:42.259Z,8.45
2018-04-26T05:17:35.427Z,12.47
2018-04-26T05:21:28.762Z,11.32
2018-04-26T05:25:22.059Z,12.57
2018-04-26T05:29:15.381Z,7.33
2018-04-26T05:33:09.015Z,11.57
2018-04-26T05:37:03.616Z,10.65
2018-04-26T05:40:57.118Z,8.20
2018-04-26T05:44:51.458Z,8.43
2018-04-26T05:48:44.812Z,5.20
2018-04-26T05:52:38.180Z,4.25
2018-04-26T05:56:33.125Z,5.57
2018-04-26T06:00:26.637Z,4.87
2018-04-26T06:04:19.788Z,4.00
2018-04-26T06:08:13.156Z,3.93
2018-04-26T06:12:06.467Z,4.43
2018-04-26T06:16:00.179Z,4.27
2018-04-26T06:19:53.404Z,3.15
2018-04-26T06:24:09.791Z,2.87
2018-04-26T06:28:03.828Z,3.33
2018-04-26T06:32:00.105Z,2.97
2018-04-26T06:35:54.431Z,4.75
2018-04-26T06:39:47.919Z,3.95
2018-04-26T06:43:41.292Z,4.85
2018-04-26T06:47:34.642Z,5.07
2018-04-26T06:51:28.001Z,7.05
2018-04-26T06:55:21.248Z,4.77
2018-04-26T06:59:14.537Z,7.60
2018-04-26T07:03:08.903Z,4.28
2018-04-26T07:07:02.170Z,5.67
2018-04-26T07:10:56.390Z,5.20
2018-04-26T07:14:49.851Z,8.50
2018-04-26T07:18:43.199Z,6.30
2018-04-26T07:22:36.322Z,6.37
2018-04-26T07:26:30.257Z,7.47
2018-04-26T07:30:23.682Z,7.70
2018-04-26T07:34:17.623Z,10.13
2018-04-26T07:38:11.556Z,8.47
2018-04-26T07:42:05.530Z,9.43
2018-04-26T07:45:59.528Z,9.23
2018-04-26T07:49:52.818Z,10.83
2018-04-26T07:53:45.989Z,12.20
2018-04-26T07:57:40.124Z,11.23
2018-04-26T08:01:34.063Z,9.65
2018-04-26T08:05:27.309Z,11.37
2018-04-26T08:09:20.476Z,15.35
2018-04-26T08:13:14.393Z,12.63
2018-04-26T08:17:08.417Z,12.93
2018-04-26T08:21:02.523Z,14.03
2018-04-26T08:24:57.290Z,13.43
2018-04-26T08:28:51.098Z,14.18
2018-04-26T08:32:45.577Z,11.45
2018-04-26T08:36:39.509Z,9.03
2018-04-26T08:40:33.713Z,9.93
2018-04-26T08:48:51.465Z,8.52
2018-04-26T08:52:45.882Z,10.43
2018-04-26T08:56:39.085Z,12.32
2018-04-26T09:00:34.301Z,10.50
2018-04-26T09:04:27.520Z,10.38
2018-04-26T09:08:20.858Z,7.97
2018-04-26T09:12:14.079Z,13.33
2018-04-26T09:16:07.348Z,8.90
2018-04-26T09:20:01.439Z,19.00
2018-04-26T09:23:55.061Z,10.75
2018-04-26T09:27:49.098Z,9.88
2018-04-26T09:31:42.905Z,8.65
2018-04-26T09:35:36.992Z,9.38
2018-04-26T09:39:30.332Z,8.02
2018-04-26T09:43:23.513Z,6.95
2018-04-26T09:47:17.697Z,11.10
2018-04-26T09:51:11.672Z,6.50
2018-04-26T09:55:05.376Z,7.83
2018-04-26T09:59:00.730Z,6.67
2018-04-26T10:02:55.580Z,7.90
2018-04-26T10:07:05.444Z,8.90
2018-04-26T10:10:58.737Z,9.07
2018-04-26T10:14:52.042Z,9.05
2018-04-26T10:18:46.128Z,7.43
2018-04-26T10:22:41.195Z,9.77
2018-04-26T10:26:35.035Z,9.37
2018-04-26T10:30:28.920Z,7.10
2018-04-26T10:34:23.894Z,14.38
2018-04-26T10:38:17.149Z,6.57
2018-04-26T10:42:10.336Z,7.78
2018-04-26T10:46:03.510Z,7.03
2018-04-26T10:54:29.999Z,6.47
2018-04-26T10:58:24.226Z,9.30
2018-04-26T11:02:17.816Z,6.57
2018-04-26T11:06:11.128Z,8.48
2018-04-26T11:10:07.391Z,7.93
2018-04-26T11:14:03.351Z,5.60
2018-04-26T11:18:05.887Z,9.77
2018-04-26T11:21:59.431Z,6.73
2018-04-26T11:25:52.902Z,6.67
2018-04-26T11:29:46.314Z,7.47
2018-04-26T11:33:40.356Z,5.28
2018-04-26T11:37:34.833Z,6.85
2018-04-26T11:41:33.075Z,11.27
2018-04-26T11:45:26.857Z,6.53
2018-04-26T11:49:27.665Z,5.73
2018-04-26T11:53:21.241Z,5.65
2018-04-26T11:57:14.984Z,6.30
2018-04-26T12:01:08.286Z,10.50
2018-04-26T12:05:02.852Z,9.87
2018-04-26T12:08:56.371Z,5.13
2018-04-26T12:12:50.623Z,5.83
2018-04-26T12:16:44.425Z,6.75
2018-04-26T12:20:38.251Z,7.55
2018-04-26T12:24:32.235Z,8.57
2018-04-26T12:28:25.465Z,6.15
2018-04-26T12:32:19.220Z,8.55
2018-04-26T12:36:13.412Z,7.62
2018-04-26T12:40:06.904Z,7.20
2018-04-26T12:44:01.983Z,8.50
2018-04-26T12:48:09.854Z,6.50
2018-04-26T12:52:03.569Z,7.83
2018-04-26T12:55:57.993Z,5.50
2018-04-26T12:59:51.131Z,7.00
2018-04-26T13:03:45.203Z,7.10
2018-04-26T13:07:38.327Z,6.03
2018-04-26T13:15:34.440Z,8.60
2018-04-26T13:19:27.642Z,7.97
2018-04-26T13:23:21.001Z,9.10
2018-04-26T13:27:22.705Z,7.40
2018-04-26T13:31:15.915Z,4.50
2018-04-26T13:35:09.223Z,4.70
2018-04-26T13:39:04.918Z,2.95
2018-04-26T13:42:59.337Z,3.45
2018-04-26T13:46:53.050Z,3.93
2018-04-26T13:50:46.366Z,2.72
2018-04-26T13:54:40.443Z,7.62
2018-04-26T13:58:34.697Z,5.07
2018-04-26T14:02:28.954Z,3.80
2018-04-26T14:06:22.216Z,5.00
2018-04-26T14:10:15.616Z,6.50
2018-04-26T14:14:09.457Z,8.60
2018-04-26T14:18:03.410Z,9.70
2018-04-26T14:21:57.170Z,9.20
2018-04-26T14:25:50.376Z,9.90
2018-04-26T14:29:43.565Z,9.77
2018-04-26T14:33:37.560Z,6.28
2018-04-26T14:37:31.470Z,5.40
2018-04-26T14:41:24.662Z,8.93
2018-04-26T14:45:18.017Z,4.60
2018-04-26T14:49:11.312Z,4.70
2018-04-26T14:53:05.225Z,2.87
2018-04-26T14:56:58.521Z,3.97
2018-04-26T15:00:52.236Z,4.32
2018-04-26T15:04:45.420Z,6.17
2018-04-26T15:08:38.921Z,4.27
2018-04-26T15:12:32.220Z,5.33
2018-04-26T15:16:25.774Z,4.35
2018-04-26T15:20:18.968Z,6.07
2018-04-26T15:24:12.349Z,3.70
2018-04-26T15:28:06.502Z,3.67
2018-04-26T15:31:59.815Z,2.90
2018-04-26T15:35:53.039Z,8.80
2018-04-26T15:39:46.239Z,5.93
2018-04-26T15:43:39.426Z,5.35
2018-04-26T15:47:33.852Z,3.57
2018-04-26T15:51:28.585Z,8.73
2018-04-26T15:55:33.808Z,3.80
2018-04-26T15:59:39.064Z,4.23
2018-04-26T16:03:45.044Z,5.20
2018-04-26T16:07:56.655Z,2.97
2018-04-26T16:12:02.303Z,5.75
2018-04-26T16:16:13.602Z,7.25
2018-04-26T16:20:19.665Z,7.90
2018-04-26T16:24:31.153Z,7.53
2018-04-26T16:28:42.138Z,4.18
2018-04-26T16:32:47.255Z,5.87
2018-04-26T16:41:18.780Z,8.70
2018-04-26T16:45:13.288Z,4.82
2018-04-26T16:49:07.923Z,8.00
2018-04-26T16:53:02.005Z,4.37
2018-04-26T16:56:58.835Z,4.27
2018-04-26T17:00:52.506Z,3.27
2018-04-26T17:04:46.068Z,5.00
2018-04-26T17:08:40.873Z,12.53
2018-04-26T17:12:34.453Z,5.93
2018-04-26T17:16:27.631Z,6.25
2018-04-26T17:20:20.956Z,8.67
2018-04-26T17:24:14.267Z,7.90
2018-04-26T17:28:07.562Z,4.10
2018-04-26T17:32:01.160Z,3.00
2018-04-26T17:35:54.405Z,4.57
2018-04-26T17:39:47.615Z,3.87
2018-04-26T17:43:41.039Z,4.87
2018-04-26T17:47:34.284Z,4.17
2018-04-26T17:51:27.902Z,2.65
2018-04-26T17:55:21.035Z,4.62
2018-04-26T17:59:15.945Z,4.32
2018-04-26T18:03:11.840Z,4.35
2018-04-26T18:07:05.246Z,6.45
2018-04-26T18:10:58.543Z,6.22
2018-04-26T18:14:54.669Z,3.90
2018-04-26T18:18:47.792Z,5.75
2018-04-26T18:22:42.444Z,4.60
2018-04-26T18:26:37.291Z,5.55
2018-04-26T19:23:25.508Z,5.53
2018-04-26T19:27:19.050Z,5.70
2018-04-26T19:31:12.287Z,5.63
2018-04-26T19:35:05.489Z,4.97
2018-04-26T19:38:58.765Z,4.27
2018-04-26T19:42:52.118Z,6.17
2018-04-26T19:46:45.403Z,4.28
2018-04-26T19:50:38.618Z,6.97
2018-04-26T19:54:31.826Z,8.30
2018-04-26T19:58:25.820Z,6.18
2018-04-26T20:02:19.188Z,6.63
2018-04-26T20:06:12.444Z,6.70
2018-04-26T20:10:05.741Z,4.65
2018-04-26T20:14:00.024Z,6.07
2018-04-26T20:17:53.350Z,4.50
2018-04-26T20:21:46.572Z,5.22
2018-04-26T20:25:40.611Z,5.27
2018-04-26T20:29:33.958Z,6.03
2018-04-26T20:33:27.171Z,5.93
2018-04-26T20:37:21.353Z,5.33
2018-04-26T20:41:14.548Z,4.57
2018-04-26T20:45:08.502Z,5.60
2018-04-26T20:49:01.786Z,5.37
2018-04-26T20:52:55.001Z,4.67
2018-04-26T20:56:50.416Z,6.57
2018-04-26T21:00:46.386Z,5.93
2018-04-26T21:04:39.909Z,5.63
2018-04-26T21:08:35.907Z,6.70
2018-04-26T21:12:29.160Z,7.70
2018-04-26T21:16:23.312Z,7.50
2018-04-26T21:20:16.519Z,5.80
2018-04-26T21:24:10.960Z,8.02
2018-04-26T21:28:04.243Z,4.43
2018-04-26T21:31:57.503Z,5.70
2018-04-26T21:35:50.883Z,6.57
2018-04-26T21:39:44.708Z,5.12
2018-04-26T21:43:38.320Z,9.40
2018-04-26T21:47:32.545Z,6.75
2018-04-26T21:51:31.369Z,6.03
2018-04-26T21:55:30.712Z,8.43
2018-04-26T21:59:29.498Z,5.43
2018-04-26T22:08:02.037Z,5.68
2018-04-26T22:11:55.453Z,5.43
2018-04-26T22:15:48.792Z,7.77
2018-04-26T22:19:42.158Z,4.72
2018-04-26T22:23:35.443Z,6.03
2018-04-26T22:27:29.641Z,5.07
2018-04-26T22:31:22.877Z,8.47
2018-04-26T22:35:16.631Z,6.82
2018-04-26T22:39:10.608Z,4.82
2018-04-26T22:43:05.438Z,5.30
2018-04-26T22:46:59.924Z,6.07
2018-04-26T22:50:54.388Z,8.27
2018-04-26T22:54:47.844Z,6.47
2018-04-26T22:58:41.049Z,5.97
2018-04-26T23:02:34.413Z,5.80
2018-04-26T23:06:28.045Z,7.90
2018-04-26T23:10:21.217Z,5.93
2018-04-26T23:14:15.152Z,6.35
2018-04-26T23:18:08.531Z,6.90
2018-04-26T23:22:01.689Z,6.90
2018-04-26T23:25:56.849Z,6.55
2018-04-26T23:29:50.526Z,7.97
2018-04-26T23:33:43.739Z,5.75
2018-04-26T23:37:37.653Z,7.93
2018-04-26T23:41:30.840Z,4.75
2018-04-26T23:45:24.063Z,8.05
2018-04-26T23:49:17.243Z,5.40
2018-04-26T23:53:10.460Z,6.30
2018-04-26T23:57:03.696Z,7.60
